Airfield :
LOGIN :

Register | Disclaimer

   EN    FR    IT 

 










Legend :    VFR   Marginal VFR   IFR   Intensive IFR   Very Intensive IFR
Visi :
Ceiling :
>= 8 km
>= 3000ft
5 to 8 km
1000 to 3000 ft
1500m to 5 km
500 to 1000 ft
800 to 1500m
200 to 500 ft
< 800m
< 200 ft
Symbols :   Thunderstorms  Fog  Heavy snow  Heavy precipitations  Wind > 20 kt
SIGMETs :     Misc.  Thunderstorms  Icing  Turbulence  Mountain Waves  Volcanic Ashes






- Airport Elevation : 333 ft


LIPL - Ghedi Brescia (Mil)

CURRENT METAR :
  • 171755Z 05003KT 8000 NSC 04/02 Q1022 RMK SCT SCT200 VIS MIN 8000 WIND THR31 04002KT WIND THR13 06003KT BLU

EXPIRED METARs :
  • 171655Z 30005KT 7000 FEW070 05/02 Q1022 RMK FEW VIS MIN 7000 WIND THR31 35003KT WIND THR13 30005KT WHT
  • 171555Z 27003KT 8000 FEW060 08/02 Q1023 RMK FEW VIS MIN 8000 WIND THR31 28005KT WIND THR13 26003KT BLU

TAF TAF LIPL
Valid from the 17 at 18:00 until the 18 at 03:00 UTC


171700Z 1718/1803 30004KT 8000 NSC
TEMPO 1718/1721 4000 BR



MET'MAP, your aeronautical weather chart ! - Copyright ORBIFLY December 2007 - Disclaimer

ORBIFLY MET'MAP TEAM :

Programming & Development : Alexandra Zaïnal
Concept & original design : Baudouin d'Aumeries
Assistance for programming : Marc-Olivier Méhu
Technical & hardware support : Manuel Goepfert

Contact : metmap@orbifly.com




SOURCES & CREDITS :

   NOAA